createdAt,value
2023-02-11T00:00:51.811Z,17.60
2023-02-11T00:01:53.704Z,17.85
2023-02-11T00:02:55.438Z,18.42
2023-02-11T00:03:58.847Z,17.15
2023-02-11T00:05:04.209Z,17.75
2023-02-11T00:06:11.233Z,18.88
2023-02-11T00:07:12.906Z,17.38
2023-02-11T00:08:17.096Z,16.85
2023-02-11T00:09:18.820Z,17.27
2023-02-11T00:10:20.553Z,16.55
2023-02-11T00:11:25.621Z,16.70
2023-02-11T00:12:27.322Z,17.08
2023-02-11T00:13:30.019Z,17.05
2023-02-11T00:14:31.992Z,16.67
2023-02-11T00:15:33.701Z,16.88
2023-02-11T00:16:35.513Z,16.38
2023-02-11T00:17:37.370Z,16.05
2023-02-11T00:18:39.602Z,16.95
2023-02-11T00:19:41.315Z,17.00
2023-02-11T00:20:43.468Z,17.27
2023-02-11T00:21:45.170Z,17.75
2023-02-11T00:22:46.895Z,17.27
2023-02-11T00:23:49.307Z,16.30
2023-02-11T00:24:51.018Z,16.00
2023-02-11T00:25:53.030Z,14.90
2023-02-11T00:26:54.817Z,14.30
2023-02-11T00:27:56.522Z,14.20
2023-02-11T00:28:59.180Z,14.85
2023-02-11T00:30:02.363Z,15.18
2023-02-11T00:31:04.335Z,14.82
2023-02-11T00:32:08.999Z,16.13
2023-02-11T00:33:10.750Z,15.30
2023-02-11T00:34:12.470Z,14.63
2023-02-11T00:35:14.191Z,14.27
2023-02-11T00:36:23.145Z,11.52
2023-02-11T00:37:24.874Z,10.65
2023-02-11T00:38:26.565Z,11.07
2023-02-11T00:39:28.674Z,10.98
2023-02-11T00:40:30.411Z,10.40
2023-02-11T00:41:32.170Z,11.02
2023-02-11T00:42:35.742Z,9.95
2023-02-11T00:43:37.457Z,9.68
2023-02-11T00:44:39.247Z,10.20
2023-02-11T00:45:40.942Z,8.23
2023-02-11T00:46:42.958Z,7.90
2023-02-11T00:47:44.742Z,7.90
2023-02-11T00:48:46.449Z,6.75
2023-02-11T00:49:48.162Z,6.38
2023-02-11T00:50:49.860Z,5.80
2023-02-11T00:51:51.611Z,6.03
2023-02-11T00:52:53.311Z,6.57
2023-02-11T00:53:55.405Z,6.25
2023-02-11T00:54:57.235Z,6.45
2023-02-11T00:55:59.193Z,6.38
2023-02-11T00:57:01.176Z,5.80
2023-02-11T00:58:03.006Z,7.13
2023-02-11T00:59:04.709Z,6.70
2023-02-11T01:00:07.514Z,7.03
2023-02-11T01:01:09.273Z,6.90
2023-02-11T01:02:11.050Z,6.65
2023-02-11T01:03:12.764Z,6.78
2023-02-11T01:04:14.454Z,7.30
2023-02-11T01:05:16.204Z,6.88
2023-02-11T01:06:18.179Z,6.93
2023-02-11T01:07:19.938Z,8.90
2023-02-11T01:08:21.689Z,9.57
2023-02-11T01:09:23.404Z,8.50
2023-02-11T01:10:25.677Z,8.93
2023-02-11T01:11:27.427Z,8.70
2023-02-11T01:12:29.123Z,7.93
2023-02-11T01:13:32.578Z,7.82
2023-02-11T01:14:34.347Z,8.15
2023-02-11T01:15:36.130Z,8.30
2023-02-11T01:16:37.892Z,8.68
2023-02-11T01:17:39.646Z,7.65
2023-02-11T01:18:44.417Z,7.65
2023-02-11T01:19:46.293Z,7.18
2023-02-11T01:20:47.981Z,8.52
2023-02-11T01:21:49.703Z,7.53
2023-02-11T01:22:51.436Z,7.85
2023-02-11T01:23:53.213Z,7.85
2023-02-11T01:24:54.943Z,7.32
2023-02-11T01:25:56.895Z,7.82
2023-02-11T01:26:58.713Z,6.63
2023-02-11T01:28:00.458Z,7.25
2023-02-11T01:29:02.244Z,6.43
2023-02-11T01:30:05.854Z,7.28
2023-02-11T01:31:07.754Z,7.38
2023-02-11T01:32:09.627Z,6.97
2023-02-11T01:33:11.584Z,7.00
2023-02-11T01:34:13.463Z,7.72
2023-02-11T01:35:15.267Z,7.55
2023-02-11T01:36:17.029Z,6.63
2023-02-11T01:37:18.723Z,5.82
2023-02-11T01:38:26.184Z,6.55
2023-02-11T01:39:27.991Z,6.65
2023-02-11T01:40:29.733Z,7.45
2023-02-11T01:41:31.593Z,7.47
2023-02-11T01:42:33.578Z,6.65
2023-02-11T01:43:48.195Z,6.63
2023-02-11T01:44:51.553Z,6.70
2023-02-11T01:46:01.292Z,7.57
2023-02-11T01:47:06.160Z,6.63
2023-02-11T01:48:10.500Z,6.68
2023-02-11T01:49:27.080Z,6.78
2023-02-11T01:50:29.119Z,6.90
2023-02-11T01:51:40.237Z,7.40
2023-02-11T01:52:42.730Z,7.55
2023-02-11T01:54:05.089Z,7.20
2023-02-11T01:55:29.718Z,7.25
2023-02-11T01:56:50.207Z,7.40
2023-02-11T01:57:57.084Z,7.13
2023-02-11T01:59:07.928Z,7.40
2023-02-11T02:00:21.064Z,7.88
2023-02-11T02:01:26.920Z,7.10
2023-02-11T02:02:37.581Z,7.32
2023-02-11T02:03:43.952Z,10.30
2023-02-11T02:05:21.521Z,11.93
2023-02-11T02:06:30.592Z,9.32
2023-02-11T02:07:42.926Z,9.52
2023-02-11T02:09:02.905Z,8.88
2023-02-11T02:10:11.595Z,8.82
2023-02-11T02:11:13.530Z,9.65
2023-02-11T02:12:15.273Z,8.68
2023-02-11T02:13:17.503Z,9.45
2023-02-11T02:14:19.638Z,8.07
2023-02-11T02:15:25.733Z,8.77
2023-02-11T02:16:34.306Z,9.35
2023-02-11T02:17:52.801Z,9.43
2023-02-11T02:19:39.508Z,10.48
2023-02-11T02:21:10.660Z,8.82
2023-02-11T02:22:30.721Z,7.90
2023-02-11T02:23:41.504Z,8.13
2023-02-11T02:24:56.786Z,8.82
2023-02-11T02:25:58.471Z,7.40
2023-02-11T02:27:27.370Z,7.38
2023-02-11T02:28:58.109Z,7.35
2023-02-11T02:30:16.703Z,7.63
2023-02-11T02:31:37.516Z,7.05
2023-02-11T02:33:22.297Z,7.60
2023-02-11T02:34:35.646Z,7.70
2023-02-11T02:35:58.671Z,7.65
2023-02-11T02:37:45.052Z,7.53
2023-02-11T02:38:58.598Z,7.68
2023-02-11T02:40:08.076Z,7.57
2023-02-11T02:41:16.954Z,8.18
2023-02-11T02:42:20.323Z,7.75
2023-02-11T02:43:23.866Z,7.80
2023-02-11T02:44:26.090Z,7.90
2023-02-11T02:45:28.108Z,7.95
2023-02-11T02:46:32.905Z,8.38
2023-02-11T02:47:34.662Z,7.38
2023-02-11T02:48:36.413Z,7.22
2023-02-11T02:49:38.116Z,8.65
2023-02-11T02:50:39.887Z,7.93
2023-02-11T02:52:07.273Z,7.95
2023-02-11T02:53:32.604Z,8.50
2023-02-11T02:55:00.165Z,8.00
2023-02-11T02:56:40.468Z,8.13
2023-02-11T02:57:53.177Z,8.95
2023-02-11T02:59:09.696Z,8.75
2023-02-11T03:00:27.773Z,8.57
2023-02-11T03:01:53.288Z,8.93
2023-02-11T03:03:17.518Z,8.63
2023-02-11T03:04:47.003Z,7.85
2023-02-11T03:05:53.368Z,9.73
2023-02-11T03:07:11.891Z,9.10
2023-02-11T03:08:40.873Z,8.65
2023-02-11T03:10:10.732Z,8.90
2023-02-11T03:11:15.408Z,9.98
2023-02-11T03:12:17.844Z,9.30
2023-02-11T03:13:26.783Z,9.13
2023-02-11T03:14:30.776Z,8.82
2023-02-11T03:15:37.714Z,9.70
2023-02-11T03:16:39.839Z,9.98
2023-02-11T03:17:47.646Z,9.77
2023-02-11T03:19:02.176Z,10.15
2023-02-11T03:20:06.356Z,9.65
2023-02-11T03:21:10.358Z,9.70
2023-02-11T03:22:20.085Z,10.45
2023-02-11T03:23:33.052Z,14.77
2023-02-11T03:24:38.472Z,12.93
2023-02-11T03:25:53.095Z,11.77
2023-02-11T03:26:58.307Z,13.90
2023-02-11T03:28:12.694Z,14.57
2023-02-11T03:29:28.387Z,16.70
2023-02-11T03:30:40.383Z,16.23
2023-02-11T03:31:53.612Z,15.43
2023-02-11T03:33:05.904Z,14.88
2023-02-11T03:34:15.823Z,15.18
2023-02-11T03:35:23.266Z,14.95
2023-02-11T03:36:46.159Z,15.75
2023-02-11T03:38:08.275Z,15.73
2023-02-11T03:39:13.392Z,14.82
2023-02-11T03:40:32.670Z,15.50
2023-02-11T03:41:35.697Z,16.98
2023-02-11T03:42:46.253Z,16.05
2023-02-11T03:43:52.417Z,15.30
2023-02-11T03:45:00.941Z,16.42
2023-02-11T03:46:03.927Z,15.23
2023-02-11T03:47:09.539Z,15.68
2023-02-11T03:48:39.342Z,14.32
2023-02-11T03:49:43.728Z,15.48
2023-02-11T03:50:48.600Z,14.57
2023-02-11T03:51:53.164Z,14.05
2023-02-11T03:52:56.956Z,15.48
2023-02-11T03:54:02.175Z,15.88
2023-02-11T03:55:11.319Z,14.82
2023-02-11T03:56:19.727Z,15.38
2023-02-11T03:57:21.538Z,14.88
2023-02-11T03:58:23.310Z,16.05
2023-02-11T03:59:25.468Z,15.88
2023-02-11T04:00:39.780Z,15.77
2023-02-11T04:01:41.524Z,17.83
2023-02-11T04:02:44.382Z,19.83
2023-02-11T04:03:46.097Z,19.45
2023-02-11T04:04:47.920Z,19.65
2023-02-11T04:05:49.998Z,22.15
2023-02-11T04:06:51.933Z,23.80
2023-02-11T04:07:53.697Z,24.15
2023-02-11T04:08:55.397Z,24.67
2023-02-11T04:09:57.100Z,23.98
2023-02-11T04:10:59.023Z,23.08
2023-02-11T04:12:00.803Z,24.35
2023-02-11T04:13:02.758Z,25.98
2023-02-11T04:14:04.487Z,24.85
2023-02-11T04:15:07.003Z,27.08
2023-02-11T04:16:08.704Z,27.75
2023-02-11T04:17:10.821Z,28.23
2023-02-11T04:18:12.551Z,29.52
2023-02-11T04:19:14.305Z,28.95
2023-02-11T04:20:16.129Z,30.38
2023-02-11T04:21:17.857Z,31.50
2023-02-11T04:22:19.600Z,31.83
2023-02-11T04:23:21.299Z,32.05
2023-02-11T04:24:23.166Z,30.83
2023-02-11T04:25:26.074Z,30.88
2023-02-11T04:26:27.791Z,30.13
2023-02-11T04:27:30.051Z,28.80
2023-02-11T04:28:31.876Z,29.42
2023-02-11T04:29:33.711Z,30.10
2023-02-11T04:30:35.415Z,28.08
2023-02-11T04:31:37.291Z,28.63
2023-02-11T04:32:39.110Z,27.52
2023-02-11T04:33:40.814Z,28.75
2023-02-11T04:34:42.567Z,27.17
2023-02-11T04:35:44.393Z,25.80
2023-02-11T04:36:46.111Z,27.75
2023-02-11T04:37:47.848Z,25.67
2023-02-11T04:38:49.568Z,26.42
2023-02-11T04:39:51.274Z,25.52
2023-02-11T04:40:53.011Z,27.95
2023-02-11T04:41:54.777Z,24.00
2023-02-11T04:42:56.457Z,23.20
2023-02-11T04:43:58.299Z,25.88
2023-02-11T04:45:00.044Z,26.70
2023-02-11T04:46:01.823Z,26.55
2023-02-11T04:47:03.659Z,24.88
2023-02-11T04:48:05.523Z,24.38
2023-02-11T04:49:07.272Z,22.75
2023-02-11T04:50:09.329Z,21.02
2023-02-11T04:51:11.723Z,21.52
2023-02-11T04:52:13.432Z,19.88
2023-02-11T04:53:15.129Z,20.08
2023-02-11T04:54:17.549Z,22.77
2023-02-11T04:55:19.368Z,22.27
2023-02-11T04:56:21.098Z,22.30
2023-02-11T04:57:22.866Z,23.83
2023-02-11T04:58:24.571Z,25.00
2023-02-11T04:59:26.292Z,23.35
2023-02-11T05:00:27.987Z,22.65
2023-02-11T05:01:29.754Z,23.00
2023-02-11T05:02:32.119Z,22.08
2023-02-11T05:03:33.880Z,22.30
2023-02-11T05:04:35.600Z,19.42
2023-02-11T05:05:42.170Z,19.20
2023-02-11T05:06:43.888Z,22.30
2023-02-11T05:07:45.659Z,24.90
2023-02-11T05:08:47.463Z,23.85
2023-02-11T05:09:49.182Z,23.00
2023-02-11T05:10:50.877Z,23.10
2023-02-11T05:11:53.704Z,20.80
2023-02-11T05:12:56.072Z,19.63
2023-02-11T05:13:57.953Z,17.23
2023-02-11T05:14:59.653Z,19.05
2023-02-11T05:16:01.463Z,14.30
2023-02-11T05:17:03.317Z,14.10
2023-02-11T05:18:05.259Z,14.40
2023-02-11T05:19:06.984Z,13.40
2023-02-11T05:20:09.396Z,13.90
2023-02-11T05:21:15.957Z,11.88
2023-02-11T05:22:17.699Z,12.60
2023-02-11T05:23:19.464Z,14.18
2023-02-11T05:24:21.244Z,12.93
2023-02-11T05:25:22.969Z,13.55
2023-02-11T05:26:25.195Z,13.13
2023-02-11T05:27:26.911Z,13.65
2023-02-11T05:28:29.138Z,14.25
2023-02-11T05:29:31.010Z,13.80
2023-02-11T05:30:33.081Z,14.40
2023-02-11T05:31:34.824Z,15.40
2023-02-11T05:32:36.577Z,15.57
2023-02-11T05:33:38.533Z,15.63
2023-02-11T05:34:40.261Z,14.82
2023-02-11T05:35:42.005Z,15.10
2023-02-11T05:36:43.773Z,14.05
2023-02-11T05:37:45.564Z,15.75
2023-02-11T05:38:47.317Z,16.85
2023-02-11T05:39:49.081Z,16.65
2023-02-11T05:40:50.770Z,18.48
2023-02-11T05:41:52.517Z,17.83
2023-02-11T05:42:54.387Z,18.27
2023-02-11T05:43:56.137Z,19.60
2023-02-11T05:44:58.074Z,20.00
2023-02-11T05:45:59.989Z,19.98
2023-02-11T05:47:01.832Z,22.67
2023-02-11T05:48:03.579Z,23.52
2023-02-11T05:49:05.765Z,24.95
2023-02-11T05:50:07.723Z,25.30
2023-02-11T05:51:09.728Z,25.75
2023-02-11T05:52:11.477Z,25.35
2023-02-11T05:53:13.378Z,24.05
2023-02-11T05:54:15.523Z,24.85
2023-02-11T05:55:17.317Z,24.83
2023-02-11T05:56:19.055Z,24.73
2023-02-11T05:57:20.785Z,23.55
2023-02-11T05:58:22.559Z,22.02
2023-02-11T05:59:24.303Z,24.08
2023-02-11T06:00:26.241Z,24.00
2023-02-11T06:01:28.151Z,22.73
2023-02-11T06:02:29.911Z,22.85
2023-02-11T06:03:31.780Z,20.65
2023-02-11T06:04:34.466Z,21.17
2023-02-11T06:05:36.204Z,19.55
2023-02-11T06:06:37.979Z,20.45
2023-02-11T06:07:39.735Z,19.52
2023-02-11T06:08:41.785Z,18.52
2023-02-11T06:09:43.614Z,18.77
2023-02-11T06:10:45.955Z,18.05
2023-02-11T06:11:47.657Z,19.63
2023-02-11T06:12:49.403Z,18.25
2023-02-11T06:13:51.497Z,18.50
2023-02-11T06:14:53.790Z,18.02
2023-02-11T06:15:57.463Z,17.95
2023-02-11T06:16:59.338Z,18.88
2023-02-11T06:18:01.049Z,23.92
2023-02-11T06:19:02.891Z,23.27
2023-02-11T06:20:08.769Z,19.73
2023-02-11T06:21:12.082Z,19.27
2023-02-11T06:22:13.878Z,20.38
2023-02-11T06:23:15.652Z,19.27
2023-02-11T06:24:28.518Z,18.73
2023-02-11T06:25:39.247Z,18.95
2023-02-11T06:26:41.172Z,18.23
2023-02-11T06:27:42.959Z,17.35
2023-02-11T06:28:45.155Z,17.48
2023-02-11T06:29:47.272Z,18.70
2023-02-11T06:30:49.114Z,19.70
2023-02-11T06:31:50.972Z,20.25
2023-02-11T06:32:52.824Z,19.52
2023-02-11T06:33:55.240Z,21.83
2023-02-11T06:34:57.012Z,21.77
2023-02-11T06:35:58.771Z,21.38
2023-02-11T06:37:00.586Z,22.45
2023-02-11T06:38:02.488Z,21.45
2023-02-11T06:39:04.597Z,20.58
2023-02-11T06:40:07.122Z,19.25
2023-02-11T06:41:16.651Z,19.45
2023-02-11T06:42:18.338Z,19.60
2023-02-11T06:43:20.185Z,22.27
2023-02-11T06:44:21.956Z,22.77
2023-02-11T06:45:23.674Z,21.48
2023-02-11T06:46:25.775Z,21.58
2023-02-11T06:47:27.512Z,19.90
2023-02-11T06:48:29.225Z,19.92
2023-02-11T06:49:31.036Z,19.05
2023-02-11T06:50:32.761Z,18.60
2023-02-11T06:51:34.514Z,19.13
2023-02-11T06:52:36.314Z,20.00
2023-02-11T06:53:40.782Z,19.33
2023-02-11T06:54:42.516Z,18.42
2023-02-11T06:55:44.322Z,19.88
2023-02-11T06:56:46.340Z,20.60
2023-02-11T06:57:48.047Z,20.13
2023-02-11T06:58:56.730Z,20.60
2023-02-11T06:59:58.483Z,22.15
2023-02-11T07:01:00.658Z,23.63
2023-02-11T07:02:02.492Z,21.98
2023-02-11T07:03:04.296Z,22.52
2023-02-11T07:04:06.935Z,23.67
2023-02-11T07:05:08.932Z,23.98
2023-02-11T07:06:15.798Z,24.45
2023-02-11T07:07:17.553Z,23.83
2023-02-11T07:08:19.254Z,22.92
2023-02-11T07:09:20.964Z,22.63
2023-02-11T07:10:22.686Z,22.45
2023-02-11T07:11:27.735Z,23.92
2023-02-11T07:12:29.593Z,21.73
2023-02-11T07:13:31.295Z,21.25
2023-02-11T07:14:33.017Z,27.77
2023-02-11T07:15:34.711Z,31.23
2023-02-11T07:16:37.164Z,29.23
2023-02-11T07:17:38.888Z,24.67
2023-02-11T07:18:41.060Z,25.27
2023-02-11T07:19:42.803Z,39.78
2023-02-11T07:20:44.535Z,34.88
2023-02-11T07:21:46.298Z,39.55
2023-02-11T07:22:48.077Z,37.72
2023-02-11T07:23:50.054Z,32.97
2023-02-11T07:24:51.809Z,23.95
2023-02-11T07:25:53.578Z,24.80
2023-02-11T07:26:55.293Z,23.70
2023-02-11T07:27:57.148Z,21.92
2023-02-11T07:28:58.885Z,24.50
2023-02-11T07:30:00.618Z,25.00
2023-02-11T07:31:11.031Z,24.13
2023-02-11T07:32:14.081Z,22.98
2023-02-11T07:33:15.808Z,25.30
2023-02-11T07:34:17.699Z,23.15
2023-02-11T07:35:19.426Z,20.52
2023-02-11T07:36:24.327Z,22.13
2023-02-11T07:37:26.126Z,23.20
2023-02-11T07:38:28.053Z,22.17
2023-02-11T07:39:29.849Z,22.05
2023-02-11T07:40:31.787Z,19.40
2023-02-11T07:41:37.776Z,18.85
2023-02-11T07:42:41.741Z,18.50
2023-02-11T07:43:44.024Z,18.67
2023-02-11T07:44:49.998Z,18.75
2023-02-11T07:45:52.365Z,19.05
2023-02-11T07:46:54.220Z,19.65
2023-02-11T07:47:56.085Z,17.95
2023-02-11T07:48:57.841Z,22.40
2023-02-11T07:49:59.522Z,22.30
2023-02-11T07:51:17.523Z,23.40
2023-02-11T07:52:19.300Z,22.33
2023-02-11T07:53:21.048Z,23.35
2023-02-11T07:54:22.840Z,22.48
2023-02-11T07:55:24.580Z,23.17
2023-02-11T07:56:27.547Z,24.88
2023-02-11T07:57:29.404Z,24.55
2023-02-11T07:58:33.155Z,23.25
2023-02-11T07:59:34.845Z,22.70
2023-02-11T08:00:36.668Z,21.08
2023-02-11T08:01:38.750Z,19.02
2023-02-11T08:02:40.505Z,18.92
2023-02-11T08:03:42.953Z,19.27
2023-02-11T08:04:46.951Z,19.05
2023-02-11T08:05:48.869Z,17.77
2023-02-11T08:06:52.933Z,16.48
2023-02-11T08:07:54.908Z,17.88
2023-02-11T08:08:56.829Z,17.65
2023-02-11T08:09:58.559Z,17.90
2023-02-11T08:11:07.628Z,17.25
2023-02-11T08:12:09.345Z,17.90
2023-02-11T08:13:11.034Z,16.50
2023-02-11T08:14:12.841Z,16.25
2023-02-11T08:15:14.634Z,15.35
2023-02-11T08:16:42.812Z,14.65
2023-02-11T08:17:44.540Z,15.35
2023-02-11T08:18:47.365Z,14.75
2023-02-11T08:19:49.143Z,12.98
2023-02-11T08:20:51.083Z,15.27
2023-02-11T08:21:57.081Z,14.95
2023-02-11T08:22:59.290Z,15.02
2023-02-11T08:24:04.342Z,14.13
2023-02-11T08:25:06.503Z,14.95
2023-02-11T08:26:12.050Z,14.75
2023-02-11T08:27:13.769Z,14.90
2023-02-11T08:28:15.525Z,13.90
2023-02-11T08:29:17.659Z,14.65
2023-02-11T08:30:19.603Z,13.68
2023-02-11T08:31:27.579Z,14.02
2023-02-11T08:32:29.391Z,13.45
2023-02-11T08:33:31.127Z,13.10
2023-02-11T08:34:32.835Z,12.82
2023-02-11T08:35:35.753Z,11.00
2023-02-11T08:36:39.436Z,11.80
2023-02-11T08:37:41.132Z,13.15
2023-02-11T08:38:43.644Z,13.20
2023-02-11T08:39:47.388Z,13.40
2023-02-11T08:40:49.787Z,14.98
2023-02-11T08:41:54.327Z,13.38
2023-02-11T08:42:56.038Z,12.13
2023-02-11T08:43:58.239Z,12.43
2023-02-11T08:44:59.966Z,13.32
2023-02-11T08:46:02.683Z,13.35
2023-02-11T08:47:04.560Z,12.63
2023-02-11T08:48:06.417Z,11.77
2023-02-11T08:49:08.172Z,13.45
2023-02-11T08:50:10.142Z,12.45
2023-02-11T08:51:24.305Z,12.55
2023-02-11T08:52:26.048Z,13.77
2023-02-11T08:53:27.744Z,13.57
2023-02-11T08:54:30.783Z,12.63
2023-02-11T08:55:32.576Z,13.32
2023-02-11T08:56:34.382Z,12.05
2023-02-11T08:57:36.207Z,13.13
2023-02-11T08:58:38.339Z,13.73
2023-02-11T08:59:42.824Z,13.32
2023-02-11T09:00:45.542Z,13.27
2023-02-11T09:01:47.938Z,12.80
2023-02-11T09:02:49.728Z,12.70
2023-02-11T09:03:52.077Z,11.88
2023-02-11T09:04:53.848Z,11.88
2023-02-11T09:05:57.103Z,11.85
2023-02-11T09:06:58.857Z,12.25
2023-02-11T09:08:00.563Z,11.40
2023-02-11T09:09:02.261Z,12.57
2023-02-11T09:10:04.338Z,11.57
2023-02-11T09:11:06.125Z,12.05
2023-02-11T09:12:07.961Z,11.52
2023-02-11T09:13:10.078Z,11.38
2023-02-11T09:14:20.993Z,13.10
2023-02-11T09:15:22.716Z,11.38
2023-02-11T09:16:28.008Z,11.38
2023-02-11T09:17:29.749Z,11.80
2023-02-11T09:18:32.178Z,11.27
2023-02-11T09:19:33.959Z,11.57
2023-02-11T09:20:35.684Z,16.35
2023-02-11T09:21:37.895Z,12.85
2023-02-11T09:22:39.593Z,11.82
2023-02-11T09:23:43.833Z,13.40
2023-02-11T09:24:45.627Z,13.43
2023-02-11T09:25:47.326Z,13.93
2023-02-11T09:26:49.735Z,12.75
2023-02-11T09:27:52.428Z,13.30
2023-02-11T09:28:54.780Z,12.45
2023-02-11T09:29:56.524Z,11.75
2023-02-11T09:30:58.279Z,11.95
2023-02-11T09:32:00.247Z,11.68
2023-02-11T09:33:02.212Z,12.70
2023-02-11T09:34:06.336Z,11.20
2023-02-11T09:35:08.275Z,9.75
2023-02-11T09:36:10.296Z,9.93
2023-02-11T09:37:12.005Z,8.77
2023-02-11T09:38:13.784Z,11.38
2023-02-11T09:39:20.389Z,9.23
2023-02-11T09:40:22.999Z,9.02
2023-02-11T09:41:24.674Z,8.40
2023-02-11T09:42:38.854Z,11.48
2023-02-11T09:43:48.190Z,10.80
2023-02-11T09:44:50.319Z,9.82
2023-02-11T09:45:56.087Z,23.48
2023-02-11T09:47:06.501Z,10.15
2023-02-11T09:48:20.305Z,10.15
2023-02-11T09:49:47.321Z,8.55
2023-02-11T09:50:57.772Z,9.30
2023-02-11T09:52:06.637Z,10.15
2023-02-11T09:53:17.315Z,11.57
2023-02-11T09:54:30.424Z,9.45
2023-02-11T09:55:39.910Z,9.35
2023-02-11T09:56:41.691Z,7.72
2023-02-11T09:57:43.438Z,7.72
2023-02-11T09:58:45.589Z,7.88
2023-02-11T09:59:49.414Z,8.07
2023-02-11T10:00:57.425Z,8.68
2023-02-11T10:02:12.092Z,8.82
2023-02-11T10:03:34.909Z,8.40
2023-02-11T10:05:24.065Z,8.30
2023-02-11T10:06:38.689Z,7.72
2023-02-11T10:08:10.109Z,7.70
2023-02-11T10:09:20.760Z,8.65
2023-02-11T10:10:50.883Z,9.10
2023-02-11T10:11:58.440Z,8.80
2023-02-11T10:13:37.383Z,9.48
2023-02-11T10:14:47.979Z,10.05
2023-02-11T10:16:02.013Z,10.05
2023-02-11T10:17:10.407Z,9.02
2023-02-11T10:18:18.183Z,8.95
2023-02-11T10:19:19.840Z,9.30
2023-02-11T10:20:50.260Z,9.02
2023-02-11T10:21:59.580Z,8.88
2023-02-11T10:23:10.676Z,9.02
2023-02-11T10:25:23.086Z,8.70
2023-02-11T10:26:31.008Z,8.95
2023-02-11T10:27:35.555Z,7.82
2023-02-11T10:28:39.640Z,8.88
2023-02-11T10:29:48.358Z,8.63
2023-02-11T10:31:16.317Z,8.23
2023-02-11T10:32:49.516Z,8.25
2023-02-11T10:34:00.367Z,7.78
2023-02-11T10:35:15.266Z,8.05
2023-02-11T10:36:19.126Z,9.23
2023-02-11T10:37:20.861Z,9.60
2023-02-11T10:38:22.645Z,10.13
2023-02-11T10:39:27.172Z,9.15
2023-02-11T10:40:31.688Z,9.13
2023-02-11T10:41:38.720Z,8.55
2023-02-11T10:42:44.486Z,7.60
2023-02-11T10:43:46.182Z,7.70
2023-02-11T10:45:01.363Z,8.00
2023-02-11T10:46:04.932Z,8.23
2023-02-11T10:47:37.653Z,8.10
2023-02-11T10:48:55.320Z,7.43
2023-02-11T10:50:03.379Z,7.75
2023-02-11T10:51:13.447Z,8.05
2023-02-11T10:52:22.740Z,8.25
2023-02-11T10:53:24.571Z,8.50
2023-02-11T10:54:26.282Z,8.18
2023-02-11T10:55:28.828Z,9.05
2023-02-11T10:56:33.473Z,8.57
2023-02-11T10:57:38.352Z,8.32
2023-02-11T10:58:56.477Z,9.13
2023-02-11T11:00:30.549Z,9.90
2023-02-11T11:01:46.930Z,9.27
2023-02-11T11:02:58.447Z,8.73
2023-02-11T11:04:00.526Z,8.48
2023-02-11T11:05:06.797Z,8.45
2023-02-11T11:06:09.964Z,8.60
2023-02-11T11:07:30.114Z,37.08
2023-02-11T11:08:44.507Z,19.38
2023-02-11T11:09:49.035Z,8.65
2023-02-11T11:11:07.978Z,8.45
2023-02-11T11:12:30.966Z,8.80
2023-02-11T11:13:36.396Z,15.88
2023-02-11T11:14:38.201Z,8.55
2023-02-11T11:15:39.950Z,8.75
2023-02-11T11:16:52.793Z,8.30
2023-02-11T11:18:21.416Z,8.75
2023-02-11T11:19:25.607Z,9.95
2023-02-11T11:20:35.315Z,10.07
2023-02-11T11:21:40.953Z,8.50
2023-02-11T11:22:43.880Z,8.73
2023-02-11T11:23:52.857Z,7.18
2023-02-11T11:24:56.045Z,7.95
2023-02-11T11:26:03.781Z,7.90
2023-02-11T11:27:06.367Z,7.70
2023-02-11T11:28:22.878Z,7.55
2023-02-11T11:29:46.125Z,9.80
2023-02-11T11:30:48.295Z,10.05
2023-02-11T11:31:57.979Z,9.68
2023-02-11T11:33:01.196Z,10.18
2023-02-11T11:34:34.046Z,12.30
2023-02-11T11:35:35.823Z,8.50
2023-02-11T11:36:39.869Z,7.60
2023-02-11T11:37:42.223Z,9.77
2023-02-11T11:38:48.992Z,9.55
2023-02-11T11:40:02.854Z,12.38
2023-02-11T11:41:20.014Z,8.05
2023-02-11T11:42:26.226Z,8.60
2023-02-11T11:43:27.965Z,8.70
2023-02-11T11:44:37.680Z,8.02
2023-02-11T11:45:39.714Z,10.15
2023-02-11T11:46:44.298Z,7.32
2023-02-11T11:47:59.456Z,7.30
2023-02-11T11:49:33.057Z,7.40
2023-02-11T11:50:43.615Z,7.47
2023-02-11T11:51:55.378Z,8.30
2023-02-11T11:53:04.678Z,8.90
2023-02-11T11:54:13.609Z,9.20
2023-02-11T11:55:26.453Z,17.15
2023-02-11T11:56:32.137Z,11.98
2023-02-11T11:57:38.746Z,7.75
2023-02-11T11:58:41.051Z,7.45
2023-02-11T11:59:42.854Z,7.70
2023-02-11T12:00:52.358Z,7.53
2023-02-11T12:02:19.364Z,7.20
2023-02-11T12:04:03.781Z,8.38
2023-02-11T12:05:27.133Z,6.93
2023-02-11T12:06:41.211Z,7.22
2023-02-11T12:07:54.691Z,8.15
2023-02-11T12:09:23.224Z,8.02
2023-02-11T12:10:40.293Z,7.20
2023-02-11T12:11:48.160Z,7.30
2023-02-11T12:12:49.814Z,7.00
2023-02-11T12:14:06.564Z,7.05
2023-02-11T12:15:26.669Z,6.88
2023-02-11T12:16:50.137Z,6.78
2023-02-11T12:17:57.972Z,7.07
2023-02-11T12:19:27.912Z,6.78
2023-02-11T12:20:33.391Z,4.75
2023-02-11T12:21:56.442Z,6.07
2023-02-11T12:23:07.003Z,6.45
2023-02-11T12:24:35.245Z,7.68
2023-02-11T12:25:47.381Z,6.85
2023-02-11T12:27:10.759Z,7.15
2023-02-11T12:29:01.183Z,5.30
2023-02-11T12:30:33.112Z,5.47
2023-02-11T12:32:19.075Z,5.53
2023-02-11T12:33:26.369Z,7.00
2023-02-11T12:34:55.924Z,7.13
2023-02-11T12:36:32.122Z,5.03
2023-02-11T12:37:56.524Z,6.50
2023-02-11T12:39:07.007Z,5.72
2023-02-11T12:40:23.915Z,5.70
2023-02-11T12:41:50.658Z,5.57
2023-02-11T12:43:18.376Z,5.68
2023-02-11T12:44:40.795Z,5.32
2023-02-11T12:46:20.968Z,5.35
2023-02-11T12:47:44.319Z,5.57
2023-02-11T12:49:24.088Z,5.38
2023-02-11T12:50:25.904Z,4.90
2023-02-11T12:51:36.414Z,4.80
2023-02-11T12:52:56.387Z,4.78
2023-02-11T12:54:31.931Z,5.90
2023-02-11T12:55:46.717Z,5.85
2023-02-11T12:56:53.916Z,5.85
2023-02-11T12:57:59.579Z,5.70
2023-02-11T12:59:05.085Z,5.97
2023-02-11T13:00:47.807Z,5.32
2023-02-11T13:01:52.172Z,6.40
2023-02-11T13:03:02.101Z,6.18
2023-02-11T13:04:26.026Z,5.88
2023-02-11T13:05:34.001Z,7.22
2023-02-11T13:06:59.180Z,5.88
2023-02-11T13:08:16.221Z,6.57
2023-02-11T13:09:26.816Z,6.00
2023-02-11T13:10:36.772Z,6.20
2023-02-11T13:11:43.480Z,6.68
2023-02-11T13:13:05.920Z,7.20
2023-02-11T13:14:27.317Z,5.88
2023-02-11T13:16:35.256Z,5.40
2023-02-11T13:17:45.077Z,5.20
2023-02-11T13:19:03.914Z,5.70
2023-02-11T13:21:04.317Z,6.13
2023-02-11T13:22:34.522Z,6.63
2023-02-11T13:23:55.126Z,6.85
2023-02-11T13:25:04.104Z,6.65
2023-02-11T13:26:19.104Z,6.00
2023-02-11T13:27:26.595Z,7.70
2023-02-11T13:28:57.558Z,6.00
2023-02-11T13:30:36.914Z,7.70
2023-02-11T13:31:38.916Z,5.63
2023-02-11T13:32:55.973Z,6.07
2023-02-11T13:33:57.761Z,6.13
2023-02-11T13:34:59.625Z,6.03
2023-02-11T13:36:04.388Z,6.95
2023-02-11T13:37:07.277Z,6.72
2023-02-11T13:38:25.982Z,11.52
2023-02-11T13:39:27.837Z,9.02
2023-02-11T13:40:39.926Z,6.80
2023-02-11T13:41:42.233Z,6.40
2023-02-11T13:42:55.516Z,6.90
2023-02-11T13:44:06.467Z,6.65
2023-02-11T13:45:40.247Z,7.07
2023-02-11T13:46:57.360Z,6.80
2023-02-11T13:48:01.769Z,6.32
2023-02-11T13:49:03.564Z,6.30
2023-02-11T13:50:08.355Z,6.55
2023-02-11T13:51:13.376Z,6.55
2023-02-11T13:52:24.608Z,6.38
2023-02-11T13:54:39.635Z,6.90
2023-02-11T13:55:46.205Z,7.03
2023-02-11T13:57:19.839Z,6.72
2023-02-11T13:58:27.529Z,6.75
2023-02-11T13:59:30.747Z,6.70
2023-02-11T14:00:35.479Z,6.15
2023-02-11T14:02:23.052Z,7.18
2023-02-11T14:03:53.723Z,6.53
2023-02-11T14:05:43.078Z,6.60
2023-02-11T14:07:42.081Z,6.80
2023-02-11T14:08:59.391Z,6.97
2023-02-11T14:10:01.146Z,7.25
2023-02-11T14:11:24.005Z,6.47
2023-02-11T14:12:33.356Z,7.25
2023-02-11T14:13:37.160Z,7.50
2023-02-11T14:15:04.896Z,7.72
2023-02-11T14:16:36.449Z,7.50
2023-02-11T14:17:39.533Z,7.80
2023-02-11T14:18:44.303Z,7.75
2023-02-11T14:19:48.058Z,7.28
2023-02-11T14:20:50.933Z,8.05
2023-02-11T14:21:53.416Z,7.97
2023-02-11T14:22:56.308Z,7.25
2023-02-11T14:24:07.213Z,8.68
2023-02-11T14:25:24.312Z,8.65
2023-02-11T14:26:34.972Z,8.30
2023-02-11T14:28:19.362Z,7.28
2023-02-11T14:29:30.078Z,7.70
2023-02-11T14:30:45.320Z,7.13
2023-02-11T14:31:53.152Z,7.15
2023-02-11T14:33:19.770Z,7.05
2023-02-11T14:34:39.154Z,7.28
2023-02-11T14:36:07.978Z,7.47
2023-02-11T14:37:15.763Z,7.47
2023-02-11T14:38:47.969Z,7.72
2023-02-11T14:39:56.285Z,7.47
2023-02-11T14:41:15.266Z,7.68
2023-02-11T14:42:25.557Z,7.80
2023-02-11T14:43:34.018Z,7.32
2023-02-11T14:44:35.903Z,7.55
2023-02-11T14:45:38.371Z,8.38
2023-02-11T14:46:46.000Z,7.63
2023-02-11T14:48:15.012Z,7.22